createdAt,value
2023-02-11T00:00:21.998Z,-4.60
2023-02-11T00:02:48.635Z,-4.76
2023-02-11T00:05:15.402Z,-4.88
2023-02-11T00:07:42.139Z,-4.87
2023-02-11T00:10:09.383Z,-4.82
2023-02-11T00:12:37.459Z,-4.68
2023-02-11T00:15:06.059Z,-4.81
2023-02-11T00:17:32.888Z,-4.85
2023-02-11T00:19:59.549Z,-4.71
2023-02-11T00:22:26.488Z,-4.84
2023-02-11T00:24:53.114Z,-4.90
2023-02-11T00:27:19.981Z,-4.80
2023-02-11T00:29:46.632Z,-4.96
2023-02-11T00:32:13.304Z,-4.90
2023-02-11T00:34:39.982Z,-4.86
2023-02-11T00:37:06.635Z,-4.98
2023-02-11T00:39:33.231Z,-5.04
2023-02-11T00:41:59.844Z,-5.20
2023-02-11T00:44:26.523Z,-5.23
2023-02-11T00:46:53.116Z,-5.28
2023-02-11T00:49:19.702Z,-5.14
2023-02-11T00:51:46.355Z,-5.15
2023-02-11T00:54:13.280Z,-5.39
2023-02-11T00:56:39.901Z,-5.23
2023-02-11T00:59:06.529Z,-5.34
2023-02-11T01:01:33.256Z,-5.29
2023-02-11T01:04:00.145Z,-5.47
2023-02-11T01:06:26.768Z,-5.23
2023-02-11T01:08:53.392Z,-5.28
2023-02-11T01:11:21.275Z,-5.29
2023-02-11T01:13:49.931Z,-5.35
2023-02-11T01:16:17.809Z,-5.28
2023-02-11T01:18:46.163Z,-5.44
2023-02-11T01:21:12.845Z,-5.39
2023-02-11T01:23:39.417Z,-5.40
2023-02-11T01:26:06.697Z,-5.60
2023-02-11T01:28:33.729Z,-5.50
2023-02-11T01:31:02.290Z,-5.70
2023-02-11T01:33:29.117Z,-5.81
2023-02-11T01:35:55.840Z,-5.60
2023-02-11T01:38:25.040Z,-5.62
2023-02-11T01:40:56.413Z,-5.79
2023-02-11T01:43:24.793Z,-6.03
2023-02-11T01:46:00.238Z,-5.85
2023-02-11T01:48:34.639Z,-5.95
2023-02-11T01:51:16.646Z,-5.86
2023-02-11T01:54:04.460Z,-5.87
2023-02-11T01:56:50.070Z,-5.89
2023-02-11T01:59:32.232Z,-6.05
2023-02-11T02:02:03.553Z,-5.87
2023-02-11T02:04:36.017Z,-5.94
2023-02-11T02:07:08.901Z,-5.87
2023-02-11T02:09:42.015Z,-6.01
2023-02-11T02:12:08.780Z,-5.88
2023-02-11T02:14:39.664Z,-6.05
2023-02-11T02:17:06.997Z,-5.98
2023-02-11T02:19:39.956Z,-5.89
2023-02-11T02:22:34.947Z,-5.96
2023-02-11T02:25:29.400Z,-5.90
2023-02-11T02:28:08.205Z,-5.94
2023-02-11T02:30:53.723Z,-5.89
2023-02-11T02:33:25.371Z,-5.96
2023-02-11T02:35:57.791Z,-5.92
2023-02-11T02:38:39.333Z,-6.03
2023-02-11T02:41:12.998Z,-6.04
2023-02-11T02:43:43.824Z,-6.06
2023-02-11T02:46:11.721Z,-6.04
2023-02-11T02:48:38.759Z,-5.95
2023-02-11T02:51:08.343Z,-5.95
2023-02-11T02:53:56.093Z,-5.91
2023-02-11T02:56:35.756Z,-5.94
2023-02-11T02:59:11.394Z,-6.09
2023-02-11T03:01:56.770Z,-6.07
2023-02-11T03:05:04.378Z,-6.26
2023-02-11T03:07:58.903Z,-6.12
2023-02-11T03:10:31.112Z,-6.20
2023-02-11T03:12:58.764Z,-6.25
2023-02-11T03:15:28.541Z,-6.29
2023-02-11T03:17:58.810Z,-6.30
2023-02-11T03:20:27.328Z,-6.12
2023-02-11T03:23:15.783Z,-6.22
2023-02-11T03:25:50.689Z,-6.60
2023-02-11T03:28:23.347Z,-6.08
2023-02-11T03:30:57.036Z,-6.29
2023-02-11T03:33:38.946Z,-6.24
2023-02-11T03:36:15.224Z,-6.28
2023-02-11T03:38:54.142Z,-6.11
2023-02-11T03:41:24.172Z,-6.09
2023-02-11T03:43:54.584Z,-6.13
2023-02-11T03:46:28.155Z,-6.10
2023-02-11T03:48:59.294Z,-6.10
2023-02-11T03:51:28.496Z,-6.08
2023-02-11T03:53:58.573Z,-5.98
2023-02-11T03:56:29.137Z,-6.08
2023-02-11T03:58:56.062Z,-6.12
2023-02-11T04:01:22.955Z,-5.95
2023-02-11T04:03:49.837Z,-6.00
2023-02-11T04:06:16.522Z,-5.95
2023-02-11T04:08:43.159Z,-6.19
2023-02-11T04:11:09.756Z,-6.10
2023-02-11T04:13:36.391Z,-6.02
2023-02-11T04:16:03.230Z,-6.13
2023-02-11T04:18:29.926Z,-6.21
2023-02-11T04:20:56.634Z,-5.95
2023-02-11T04:23:23.288Z,-6.15
2023-02-11T04:25:50.596Z,-6.14
2023-02-11T04:28:17.389Z,-6.10
2023-02-11T04:30:44.015Z,-6.05
2023-02-11T04:33:10.628Z,-6.07
2023-02-11T04:35:37.289Z,-6.08
2023-02-11T04:38:03.881Z,-6.28
2023-02-11T04:40:30.629Z,-6.11
2023-02-11T04:42:57.331Z,-6.19
2023-02-11T04:45:24.217Z,-6.35
2023-02-11T04:47:50.925Z,-6.31
2023-02-11T04:50:17.958Z,-6.39
2023-02-11T04:52:44.597Z,-6.29
2023-02-11T04:55:11.703Z,-6.38
2023-02-11T04:57:38.415Z,-6.43
2023-02-11T05:00:06.024Z,-6.51
2023-02-11T05:02:32.608Z,-6.60
2023-02-11T05:04:59.210Z,-6.58
2023-02-11T05:07:25.803Z,-6.59
2023-02-11T05:09:52.411Z,-6.65
2023-02-11T05:12:19.016Z,-6.78
2023-02-11T05:14:45.712Z,-6.76
2023-02-11T05:17:12.448Z,-6.92
2023-02-11T05:19:39.118Z,-6.97
2023-02-11T05:22:05.734Z,-6.94
2023-02-11T05:24:32.682Z,-6.98
2023-02-11T05:26:59.998Z,-6.93
2023-02-11T05:29:26.639Z,-6.89
2023-02-11T05:31:53.643Z,-6.69
2023-02-11T05:34:20.352Z,-6.85
2023-02-11T05:36:47.007Z,-6.98
2023-02-11T05:39:13.631Z,-6.58
2023-02-11T05:41:40.218Z,-6.52
2023-02-11T05:44:06.804Z,-6.41
2023-02-11T05:46:33.488Z,-6.46
2023-02-11T05:49:00.269Z,-6.30
2023-02-11T05:51:28.008Z,-6.48
2023-02-11T05:53:54.693Z,-6.96
2023-02-11T05:56:21.386Z,-7.47
2023-02-11T05:58:48.048Z,-7.10
2023-02-11T06:01:14.722Z,-6.17
2023-02-11T06:03:41.476Z,-5.86
2023-02-11T06:06:12.604Z,-5.98
2023-02-11T06:08:39.735Z,-4.92
2023-02-11T06:11:06.545Z,-4.58
2023-02-11T06:13:33.260Z,-4.92
2023-02-11T06:16:01.016Z,-4.09
2023-02-11T06:18:27.951Z,-4.03
2023-02-11T06:20:54.792Z,-4.44
2023-02-11T06:23:22.132Z,-4.49
2023-02-11T06:25:49.425Z,-4.13
2023-02-11T06:28:16.767Z,-4.00
2023-02-11T06:30:43.577Z,-4.12
2023-02-11T06:33:10.285Z,-3.65
2023-02-11T06:35:39.936Z,-3.65
2023-02-11T06:38:06.537Z,-3.40
2023-02-11T06:40:33.119Z,-3.58
2023-02-11T06:42:59.808Z,-3.20
2023-02-11T06:45:26.481Z,-3.54
2023-02-11T06:47:53.611Z,-3.37
2023-02-11T06:50:20.491Z,-3.74
2023-02-11T06:52:47.134Z,-3.62
2023-02-11T06:55:14.235Z,-3.49
2023-02-11T06:57:41.542Z,-3.86
2023-02-11T07:00:09.392Z,-4.40
2023-02-11T07:02:36.443Z,-4.74
2023-02-11T07:05:03.490Z,-4.07
2023-02-11T07:07:34.132Z,-3.51
2023-02-11T07:10:04.752Z,-3.75
2023-02-11T07:12:32.280Z,-2.99
2023-02-11T07:14:59.151Z,-2.88
2023-02-11T07:17:25.828Z,-2.25
2023-02-11T07:20:00.530Z,-1.83
2023-02-11T07:22:27.544Z,-2.99
2023-02-11T07:24:54.251Z,-2.13
2023-02-11T07:27:20.864Z,-2.09
2023-02-11T07:29:48.969Z,-2.26
2023-02-11T07:32:15.748Z,-2.61
2023-02-11T07:34:42.572Z,-2.55
2023-02-11T07:39:52.045Z,-2.95
2023-02-11T07:42:19.334Z,-3.41
2023-02-11T07:44:49.255Z,-3.56
2023-02-11T07:47:17.052Z,-3.12
2023-02-11T07:49:43.707Z,-3.00
2023-02-11T07:52:10.330Z,-2.92
2023-02-11T07:54:37.134Z,-3.19
2023-02-11T07:57:03.925Z,-2.56
2023-02-11T07:59:30.574Z,-2.75
2023-02-11T08:01:57.551Z,-2.85
2023-02-11T08:04:24.257Z,-2.49
2023-02-11T08:06:52.892Z,-2.69
2023-02-11T08:09:19.542Z,-2.31
2023-02-11T08:11:46.192Z,-2.18
2023-02-11T08:14:13.022Z,-2.43
2023-02-11T08:16:40.131Z,-2.25
2023-02-11T08:19:11.749Z,-2.17
2023-02-11T08:21:39.557Z,-2.06
2023-02-11T08:24:13.144Z,-2.15
2023-02-11T08:26:42.839Z,-2.22
2023-02-11T08:29:12.228Z,-1.64
2023-02-11T08:31:41.521Z,-1.87
2023-02-11T08:34:10.026Z,-1.80
2023-02-11T08:36:38.217Z,-1.01
2023-02-11T08:39:18.626Z,-1.27
2023-02-11T08:41:49.073Z,-1.34
2023-02-11T08:44:16.626Z,-0.96
2023-02-11T08:46:43.331Z,-0.81
2023-02-11T08:49:10.203Z,-1.20
2023-02-11T08:51:37.253Z,-1.56
2023-02-11T08:54:04.580Z,-1.25
2023-02-11T08:56:33.255Z,-1.34
2023-02-11T08:58:59.919Z,-1.96
2023-02-11T09:01:29.721Z,-1.58
2023-02-11T09:03:58.445Z,-0.77
2023-02-11T09:06:26.884Z,-0.51
2023-02-11T09:08:57.805Z,-0.66
2023-02-11T09:11:30.754Z,-0.58
2023-02-11T09:13:57.659Z,-1.39
2023-02-11T09:16:27.305Z,-0.85
2023-02-11T09:18:57.413Z,-0.66
2023-02-11T09:21:24.130Z,-0.49
2023-02-11T09:23:51.084Z,-0.38
2023-02-11T09:26:23.692Z,-0.21
2023-02-11T09:28:51.542Z,0.09
2023-02-11T09:31:21.417Z,0.05
2023-02-11T09:33:50.461Z,0.09
2023-02-11T09:36:20.475Z,0.24
2023-02-11T09:38:48.319Z,0.34
2023-02-11T09:41:24.059Z,0.65
2023-02-11T09:43:59.352Z,0.38
2023-02-11T09:46:43.230Z,-0.22
2023-02-11T09:49:21.953Z,0.17
2023-02-11T09:51:53.621Z,0.57
2023-02-11T09:54:34.272Z,0.78
2023-02-11T09:57:01.100Z,0.61
2023-02-11T09:59:28.180Z,0.50
2023-02-11T10:02:35.568Z,0.65
2023-02-11T10:05:23.925Z,1.02
2023-02-11T10:08:16.860Z,1.19
2023-02-11T10:11:07.462Z,1.10
2023-02-11T10:13:48.331Z,1.44
2023-02-11T10:16:55.524Z,1.22
2023-02-11T10:19:42.835Z,1.72
2023-02-11T10:22:17.508Z,1.92
2023-02-11T10:24:53.655Z,1.62
2023-02-11T10:27:29.179Z,1.81
2023-02-11T10:30:07.301Z,1.97
2023-02-11T10:32:49.770Z,1.40
2023-02-11T10:35:22.000Z,1.27
2023-02-11T10:37:49.223Z,1.27
2023-02-11T10:40:28.082Z,1.41
2023-02-11T10:43:01.434Z,1.32
2023-02-11T10:45:35.226Z,1.71
2023-02-11T10:48:06.356Z,1.88
2023-02-11T10:50:35.151Z,1.65
2023-02-11T10:53:20.971Z,1.96
2023-02-11T10:55:54.142Z,2.20
2023-02-11T10:58:30.847Z,2.27
2023-02-11T11:01:00.057Z,2.41
2023-02-11T11:03:32.099Z,2.34
2023-02-11T11:06:02.052Z,2.52
2023-02-11T11:08:40.810Z,2.88
2023-02-11T11:11:13.487Z,2.66
2023-02-11T11:14:03.302Z,2.68
2023-02-11T11:16:35.153Z,2.30
2023-02-11T11:19:08.536Z,2.74
2023-02-11T11:21:41.957Z,3.03
2023-02-11T11:24:18.920Z,2.46
2023-02-11T11:26:48.755Z,2.68
2023-02-11T11:29:18.412Z,2.60
2023-02-11T11:32:04.632Z,2.67
2023-02-11T11:34:43.198Z,2.69
2023-02-11T11:37:31.413Z,3.14
2023-02-11T11:40:18.204Z,3.02
2023-02-11T11:42:45.271Z,3.28
2023-02-11T11:45:27.089Z,3.39
2023-02-11T11:48:12.516Z,2.99
2023-02-11T11:51:00.322Z,1.95
2023-02-11T11:53:55.623Z,3.03
2023-02-11T12:13:29.021Z,2.52
2023-02-11T12:16:07.872Z,3.18
2023-02-11T12:19:14.405Z,2.88
2023-02-11T12:22:20.921Z,3.14
2023-02-11T12:24:56.908Z,3.95
2023-02-11T12:27:45.616Z,3.48
2023-02-11T12:30:51.365Z,3.26
2023-02-11T12:33:38.588Z,3.14
2023-02-11T12:36:27.625Z,2.26
2023-02-11T12:42:10.788Z,3.23
2023-02-11T12:44:58.246Z,2.85
2023-02-11T12:47:43.741Z,3.46
2023-02-11T12:50:34.920Z,3.31
2023-02-11T12:53:23.095Z,2.62
2023-02-11T12:55:56.152Z,3.43
2023-02-11T12:58:42.895Z,3.53
2023-02-11T13:01:26.095Z,2.99
2023-02-11T13:04:14.244Z,3.77
2023-02-11T13:06:50.180Z,2.82
2023-02-11T13:09:33.094Z,2.96
2023-02-11T13:12:26.492Z,3.28
2023-02-11T13:14:59.344Z,2.83
2023-02-11T13:23:06.853Z,3.68
2023-02-11T13:26:05.947Z,3.79
2023-02-11T13:28:42.466Z,3.51
2023-02-11T13:31:27.880Z,3.75
2023-02-11T13:33:59.083Z,3.68
2023-02-11T13:39:09.340Z,3.32
2023-02-11T13:41:40.572Z,3.76
2023-02-11T13:44:10.211Z,3.92
2023-02-11T13:46:57.298Z,4.07
2023-02-11T13:49:51.757Z,4.19
2023-02-11T13:52:34.508Z,3.80
2023-02-11T13:55:25.183Z,4.28
2023-02-11T13:58:07.106Z,4.49
2023-02-11T14:00:33.677Z,4.62
2023-02-11T14:03:31.030Z,4.57
2023-02-11T14:06:30.576Z,4.71
2023-02-11T14:09:09.453Z,4.57
2023-02-11T14:11:47.138Z,4.34
2023-02-11T14:15:02.865Z,4.35
2023-02-11T14:17:33.530Z,4.15
2023-02-11T14:20:04.632Z,3.84
2023-02-11T14:22:44.245Z,3.75
2023-02-11T14:25:22.988Z,3.51
2023-02-11T14:28:08.105Z,3.53
2023-02-11T14:30:52.188Z,3.47
2023-02-11T14:33:47.890Z,3.49
2023-02-11T14:36:29.796Z,3.73
2023-02-11T14:39:11.597Z,3.64
2023-02-11T14:41:47.290Z,3.56
2023-02-11T14:44:30.117Z,3.60
2023-02-11T14:46:58.088Z,3.64
2023-02-11T14:49:39.539Z,3.56
2023-02-11T14:52:14.695Z,3.60
2023-02-11T14:54:44.653Z,3.64
2023-02-11T14:57:18.359Z,3.74
2023-02-11T15:00:03.575Z,3.74
2023-02-11T15:02:35.374Z,3.82
2023-02-11T15:05:29.021Z,3.81
2023-02-11T15:08:00.032Z,4.29
2023-02-11T15:10:41.921Z,4.64
2023-02-11T15:13:13.974Z,4.37
2023-02-11T15:15:40.966Z,4.56
2023-02-11T15:18:09.713Z,6.67
2023-02-11T15:20:37.065Z,7.05
2023-02-11T15:23:08.593Z,5.50
2023-02-11T15:25:43.034Z,4.63
2023-02-11T15:28:30.893Z,4.05
2023-02-11T15:31:00.469Z,3.35
2023-02-11T15:33:30.257Z,2.97
2023-02-11T15:35:57.747Z,2.89
2023-02-11T15:38:24.660Z,2.74
2023-02-11T15:40:58.328Z,2.55
2023-02-11T15:43:25.425Z,2.27
2023-02-11T15:45:51.921Z,2.23
2023-02-11T15:48:47.228Z,2.09
2023-02-11T15:51:30.113Z,1.87
2023-02-11T15:53:59.689Z,1.77
2023-02-11T15:56:30.700Z,1.47
2023-02-11T15:59:00.738Z,1.47
2023-02-11T16:01:36.570Z,1.22
2023-02-11T16:04:04.976Z,0.84
2023-02-11T16:06:42.795Z,1.09
2023-02-11T16:09:10.228Z,0.93
2023-02-11T16:11:45.961Z,0.91
2023-02-11T16:14:42.212Z,0.87
2023-02-11T16:17:13.264Z,0.83
2023-02-11T16:19:47.935Z,0.94
2023-02-11T16:22:19.282Z,0.90
2023-02-11T16:24:48.615Z,0.86
2023-02-11T16:27:31.271Z,0.70
2023-02-11T16:29:58.806Z,0.78
2023-02-11T16:32:29.834Z,0.78
2023-02-11T16:34:59.440Z,0.68
2023-02-11T16:37:26.372Z,0.53
2023-02-11T16:39:58.108Z,0.67
2023-02-11T16:42:25.254Z,0.63
2023-02-11T16:44:52.040Z,0.64
2023-02-11T16:47:28.699Z,0.44
2023-02-11T16:49:56.209Z,0.45
2023-02-11T16:52:24.407Z,0.51
2023-02-11T16:54:51.268Z,0.55
2023-02-11T16:57:23.230Z,0.63
2023-02-11T16:59:49.847Z,0.63
2023-02-11T17:02:28.525Z,0.51
2023-02-11T17:04:58.172Z,0.44
2023-02-11T17:07:24.820Z,0.20
2023-02-11T17:09:52.301Z,0.18
2023-02-11T17:12:19.737Z,0.17
2023-02-11T17:14:46.400Z,0.12
2023-02-11T17:17:13.494Z,0.19
2023-02-11T17:19:40.153Z,0.21
2023-02-11T17:22:06.933Z,0.22
2023-02-11T17:24:33.532Z,-0.08
2023-02-11T17:27:00.241Z,0.08
2023-02-11T17:29:27.196Z,0.12
2023-02-11T17:31:54.047Z,0.04
2023-02-11T17:34:22.337Z,-0.07
2023-02-11T17:36:49.214Z,-0.10
2023-02-11T17:39:15.931Z,0.04
2023-02-11T17:41:42.772Z,0.13
2023-02-11T17:44:12.531Z,0.14
2023-02-11T17:46:39.172Z,0.10
2023-02-11T17:49:05.866Z,0.04
2023-02-11T17:51:37.765Z,-0.05
2023-02-11T17:54:11.918Z,-0.13
2023-02-11T17:56:39.210Z,-0.06
2023-02-11T17:59:06.861Z,-0.10
2023-02-11T18:01:34.559Z,-0.24
2023-02-11T18:04:01.699Z,-0.38
2023-02-11T18:06:31.562Z,-0.32
2023-02-11T18:08:59.890Z,-0.44
2023-02-11T18:11:27.946Z,-0.46
2023-02-11T18:13:54.765Z,-0.45
2023-02-11T18:16:23.128Z,-0.38
2023-02-11T18:18:50.581Z,-0.36
2023-02-11T18:21:20.413Z,-0.41
2023-02-11T18:23:47.773Z,-0.74
2023-02-11T18:26:16.978Z,-0.56
2023-02-11T18:28:45.989Z,-1.02
2023-02-11T18:31:14.071Z,-1.09
2023-02-11T18:33:42.235Z,-0.47
2023-02-11T18:36:11.553Z,-0.59
2023-02-11T18:38:38.668Z,-0.56
2023-02-11T18:41:05.721Z,-0.62
2023-02-11T18:43:33.777Z,-0.64
2023-02-11T18:46:02.159Z,-0.76
2023-02-11T18:48:29.066Z,-1.04
2023-02-11T18:50:56.142Z,-0.73
2023-02-11T18:53:24.682Z,-0.52
2023-02-11T18:55:52.662Z,-0.41
2023-02-11T18:58:21.204Z,-0.34
2023-02-11T19:00:49.034Z,-0.36
2023-02-11T19:03:16.077Z,-0.44
2023-02-11T19:05:48.136Z,-0.44
2023-02-11T19:08:15.335Z,-0.43
2023-02-11T19:10:44.515Z,-0.44
2023-02-11T19:13:11.716Z,-0.59
2023-02-11T19:15:43.382Z,-0.47
2023-02-11T19:18:10.748Z,-0.52
2023-02-11T19:20:42.034Z,-0.63
2023-02-11T19:23:09.274Z,-1.10
2023-02-11T19:25:36.245Z,-0.90
2023-02-11T19:28:03.939Z,-0.98
2023-02-11T19:30:30.773Z,-0.58
2023-02-11T19:32:57.793Z,-0.74
2023-02-11T19:35:25.382Z,-0.71
2023-02-11T19:37:52.055Z,-0.65
2023-02-11T19:40:21.270Z,-0.62
2023-02-11T19:42:48.053Z,-0.64
2023-02-11T19:45:14.791Z,-0.74
2023-02-11T19:47:41.518Z,-0.84
2023-02-11T19:50:08.673Z,-0.74
2023-02-11T19:52:38.312Z,-0.69
2023-02-11T19:55:05.209Z,-0.71
2023-02-11T19:57:31.906Z,-0.49
2023-02-11T19:59:58.570Z,-0.36
2023-02-11T20:02:25.264Z,-0.28
2023-02-11T20:04:51.897Z,-0.22
2023-02-11T20:07:18.558Z,-0.31
2023-02-11T20:09:45.183Z,-0.22
2023-02-11T20:12:12.137Z,-0.19
2023-02-11T20:14:38.911Z,-0.22
2023-02-11T20:17:05.584Z,-0.13
2023-02-11T20:19:32.375Z,-0.14
2023-02-11T20:21:58.940Z,-0.15
2023-02-11T20:24:26.178Z,-0.07
2023-02-11T20:26:55.936Z,0.01
2023-02-11T20:29:24.057Z,-0.07
2023-02-11T20:31:50.948Z,-0.15
2023-02-11T20:34:18.178Z,-0.12
2023-02-11T20:36:52.057Z,-0.09
2023-02-11T20:39:21.761Z,-0.12
2023-02-11T20:41:49.208Z,-0.04
2023-02-11T20:44:16.258Z,-0.22
2023-02-11T20:46:48.087Z,-0.32
2023-02-11T20:49:18.950Z,-0.29
2023-02-11T20:51:46.455Z,-0.34
2023-02-11T20:54:15.500Z,-0.36
2023-02-11T20:56:42.762Z,-0.31
2023-02-11T20:59:09.783Z,-0.44
2023-02-11T21:01:43.002Z,-0.11
2023-02-11T21:04:15.618Z,0.11
2023-02-11T21:06:44.725Z,0.07
2023-02-11T21:09:15.016Z,0.47
2023-02-11T21:11:42.366Z,0.34
2023-02-11T21:14:10.364Z,0.30
2023-02-11T21:16:37.250Z,-0.10
2023-02-11T21:19:04.516Z,0.10
2023-02-11T21:21:31.768Z,0.15
2023-02-11T21:23:58.699Z,-0.39
2023-02-11T21:26:25.767Z,-0.41
2023-02-11T21:28:52.336Z,-0.48
2023-02-11T21:31:23.062Z,-0.77
2023-02-11T21:33:50.988Z,-0.98
2023-02-11T21:36:17.989Z,-1.19
2023-02-11T21:38:44.926Z,-1.09
2023-02-11T21:41:11.674Z,-1.21
2023-02-11T21:43:38.499Z,-0.98
2023-02-11T21:46:10.771Z,-1.15
2023-02-11T21:48:37.901Z,-1.14
2023-02-11T21:51:25.937Z,-1.29
2023-02-11T21:53:56.381Z,-1.42
2023-02-11T21:56:23.856Z,-1.58
2023-02-11T21:58:53.434Z,-1.59
2023-02-11T22:01:28.979Z,-1.76
2023-02-11T22:03:55.936Z,-1.62
2023-02-11T22:06:30.931Z,-1.83
2023-02-11T22:08:58.064Z,-1.66
2023-02-11T22:11:25.027Z,-1.72
2023-02-11T22:13:56.370Z,-1.88
2023-02-11T22:16:23.941Z,-1.82
2023-02-11T22:18:51.504Z,-2.02
2023-02-11T22:21:20.843Z,-1.82
2023-02-11T22:23:47.983Z,-1.64
2023-02-11T22:26:21.486Z,-1.55
2023-02-11T22:28:48.913Z,-1.53
2023-02-11T22:31:22.276Z,-1.56
2023-02-11T22:33:49.071Z,-1.40
2023-02-11T22:36:19.073Z,-1.32
2023-02-11T22:38:45.794Z,-1.36
2023-02-11T22:41:12.957Z,-1.27
2023-02-11T22:43:41.848Z,-1.45
2023-02-11T22:46:09.427Z,-1.48
2023-02-11T22:48:36.117Z,-1.53
2023-02-11T22:51:11.239Z,-1.38
2023-02-11T22:53:37.897Z,-1.40
2023-02-11T22:56:15.333Z,-1.52
2023-02-11T22:58:42.543Z,-1.57
2023-02-11T23:01:09.216Z,-1.53
2023-02-11T23:03:36.530Z,-1.45
2023-02-11T23:06:03.540Z,-1.45
2023-02-11T23:08:31.642Z,-1.39
2023-02-11T23:11:24.399Z,-1.47
2023-02-11T23:13:52.318Z,-1.66
2023-02-11T23:16:23.648Z,-1.58
2023-02-11T23:18:51.144Z,-1.57
2023-02-11T23:21:23.613Z,-1.47
2023-02-11T23:23:55.161Z,-1.38
2023-02-11T23:26:21.841Z,-1.34
2023-02-11T23:28:48.490Z,-1.28
2023-02-11T23:31:21.852Z,-1.18
2023-02-11T23:33:49.424Z,-1.13
2023-02-11T23:36:18.376Z,-1.02
2023-02-11T23:38:45.562Z,-1.07
2023-02-11T23:41:12.482Z,-1.13
2023-02-11T23:43:39.367Z,-1.13
2023-02-11T23:46:06.674Z,-1.31
2023-02-11T23:48:33.892Z,-1.09
2023-02-11T23:51:00.404Z,-0.94
2023-02-11T23:53:27.142Z,-1.15
2023-02-11T23:55:54.039Z,-1.02
2023-02-11T23:58:20.973Z,-1.01
